sensor_id;sensor_type;location;lat;lon;timestamp;P1;durP1;ratioP1;P2;durP2;ratioP2
48263;SDS011;34086;51.076;13.722;2022-08-01T00:00:11;4.40;;;4.00;;
48263;SDS011;34086;51.076;13.722;2022-08-01T00:01:13;4.20;;;3.80;;
48263;SDS011;34086;51.076;13.722;2022-08-01T00:02:14;4.22;;;3.83;;
48263;SDS011;34086;51.076;13.722;2022-08-01T00:03:15;5.07;;;3.70;;
48263;SDS011;34086;51.076;13.722;2022-08-01T00:04:15;4.03;;;3.60;;
48263;SDS011;34086;51.076;13.722;2022-08-01T00:05:16;4.93;;;3.90;;
48263;SDS011;34086;51.076;13.722;2022-08-01T00:06:17;5.28;;;4.28;;
48263;SDS011;34086;51.076;13.722;2022-08-01T00:07:23;5.75;;;4.38;;
48263;SDS011;34086;51.076;13.722;2022-08-01T00:08:24;4.90;;;3.90;;
48263;SDS011;34086;51.076;13.722;2022-08-01T00:09:25;3.95;;;3.55;;
48263;SDS011;34086;51.076;13.722;2022-08-01T00:10:26;3.97;;;3.67;;
48263;SDS011;34086;51.076;13.722;2022-08-01T00:11:27;5.53;;;3.80;;
48263;SDS011;34086;51.076;13.722;2022-08-01T00:12:28;4.28;;;3.88;;
48263;SDS011;34086;51.076;13.722;2022-08-01T00:13:29;4.70;;;3.90;;
48263;SDS011;34086;51.076;13.722;2022-08-01T00:14:30;4.50;;;4.20;;
48263;SDS011;34086;51.076;13.722;2022-08-01T00:15:30;4.05;;;3.67;;
48263;SDS011;34086;51.076;13.722;2022-08-01T00:16:32;4.55;;;3.80;;
48263;SDS011;34086;51.076;13.722;2022-08-01T00:17:33;4.15;;;3.78;;
48263;SDS011;34086;51.076;13.722;2022-08-01T00:18:33;5.38;;;3.60;;
48263;SDS011;34086;51.076;13.722;2022-08-01T00:19:35;3.80;;;3.50;;
48263;SDS011;34086;51.076;13.722;2022-08-01T00:20:36;4.20;;;3.60;;
48263;SDS011;34086;51.076;13.722;2022-08-01T00:21:39;3.70;;;3.40;;
48263;SDS011;34086;51.076;13.722;2022-08-01T00:22:40;3.83;;;3.53;;
48263;SDS011;34086;51.076;13.722;2022-08-01T00:23:43;3.60;;;3.30;;
48263;SDS011;34086;51.076;13.722;2022-08-01T00:24:50;4.05;;;3.60;;
48263;SDS011;34086;51.076;13.722;2022-08-01T00:25:51;3.85;;;3.53;;
48263;SDS011;34086;51.076;13.722;2022-08-01T00:26:51;4.10;;;3.70;;
48263;SDS011;34086;51.076;13.722;2022-08-01T00:27:52;4.05;;;3.70;;
48263;SDS011;34086;51.076;13.722;2022-08-01T00:28:54;3.83;;;3.50;;
48263;SDS011;34086;51.076;13.722;2022-08-01T00:29:54;3.55;;;3.25;;
48263;SDS011;34086;51.076;13.722;2022-08-01T00:30:58;3.80;;;3.50;;
48263;SDS011;34086;51.076;13.722;2022-08-01T00:31:59;4.53;;;3.75;;
48263;SDS011;34086;51.076;13.722;2022-08-01T00:33:00;4.20;;;3.75;;
48263;SDS011;34086;51.076;13.722;2022-08-01T00:34:02;3.90;;;3.60;;
48263;SDS011;34086;51.076;13.722;2022-08-01T00:35:02;4.03;;;3.63;;
48263;SDS011;34086;51.076;13.722;2022-08-01T00:36:03;4.00;;;3.60;;
48263;SDS011;34086;51.076;13.722;2022-08-01T00:37:08;3.72;;;3.42;;
48263;SDS011;34086;51.076;13.722;2022-08-01T00:38:09;3.70;;;3.40;;
48263;SDS011;34086;51.076;13.722;2022-08-01T00:39:14;3.63;;;3.33;;
48263;SDS011;34086;51.076;13.722;2022-08-01T00:40:15;4.47;;;3.95;;
48263;SDS011;34086;51.076;13.722;2022-08-01T00:41:16;4.20;;;3.80;;
48263;SDS011;34086;51.076;13.722;2022-08-01T00:42:17;4.03;;;3.63;;
48263;SDS011;34086;51.076;13.722;2022-08-01T00:43:18;4.20;;;3.80;;
48263;SDS011;34086;51.076;13.722;2022-08-01T00:44:19;4.63;;;3.65;;
48263;SDS011;34086;51.076;13.722;2022-08-01T00:45:20;4.00;;;3.70;;
48263;SDS011;34086;51.076;13.722;2022-08-01T00:46:21;3.95;;;3.58;;
48263;SDS011;34086;51.076;13.722;2022-08-01T00:47:22;5.57;;;3.63;;
48263;SDS011;34086;51.076;13.722;2022-08-01T00:48:23;4.03;;;3.63;;
48263;SDS011;34086;51.076;13.722;2022-08-01T00:49:24;4.18;;;3.72;;
48263;SDS011;34086;51.076;13.722;2022-08-01T00:50:25;3.70;;;3.40;;
48263;SDS011;34086;51.076;13.722;2022-08-01T00:51:28;4.30;;;3.90;;
48263;SDS011;34086;51.076;13.722;2022-08-01T00:52:39;4.50;;;4.10;;
48263;SDS011;34086;51.076;13.722;2022-08-01T00:53:46;4.07;;;3.67;;
48263;SDS011;34086;51.076;13.722;2022-08-01T00:54:47;3.90;;;3.60;;
48263;SDS011;34086;51.076;13.722;2022-08-01T00:55:48;3.85;;;3.55;;
48263;SDS011;34086;51.076;13.722;2022-08-01T00:56:49;4.00;;;3.70;;
48263;SDS011;34086;51.076;13.722;2022-08-01T00:57:50;3.80;;;3.50;;
48263;SDS011;34086;51.076;13.722;2022-08-01T00:58:51;3.90;;;3.60;;
48263;SDS011;34086;51.076;13.722;2022-08-01T00:59:53;3.85;;;3.50;;
48263;SDS011;34086;51.076;13.722;2022-08-01T01:00:54;4.22;;;3.83;;
48263;SDS011;34086;51.076;13.722;2022-08-01T01:01:55;4.22;;;3.83;;
48263;SDS011;34086;51.076;13.722;2022-08-01T01:02:58;4.13;;;3.72;;
48263;SDS011;34086;51.076;13.722;2022-08-01T01:04:05;4.30;;;3.90;;
48263;SDS011;34086;51.076;13.722;2022-08-01T01:05:06;6.28;;;4.00;;
48263;SDS011;34086;51.076;13.722;2022-08-01T01:07:49;4.28;;;3.80;;
48263;SDS011;34086;51.076;13.722;2022-08-01T01:11:51;6.60;;;3.80;;
48263;SDS011;34086;51.076;13.722;2022-08-01T01:12:55;5.50;;;3.80;;
48263;SDS011;34086;51.076;13.722;2022-08-01T01:14:04;3.83;;;3.53;;
48263;SDS011;34086;51.076;13.722;2022-08-01T01:15:18;4.50;;;3.95;;
48263;SDS011;34086;51.076;13.722;2022-08-01T01:16:20;4.00;;;3.70;;
48263;SDS011;34086;51.076;13.722;2022-08-01T01:17:26;4.30;;;3.90;;
48263;SDS011;34086;51.076;13.722;2022-08-01T01:18:32;4.25;;;3.85;;
48263;SDS011;34086;51.076;13.722;2022-08-01T01:19:38;4.35;;;3.95;;
48263;SDS011;34086;51.076;13.722;2022-08-01T01:20:46;4.55;;;4.15;;
48263;SDS011;34086;51.076;13.722;2022-08-01T01:23:34;4.20;;;3.80;;
48263;SDS011;34086;51.076;13.722;2022-08-01T01:24:45;4.72;;;4.15;;
48263;SDS011;34086;51.076;13.722;2022-08-01T01:26:00;4.68;;;4.03;;
48263;SDS011;34086;51.076;13.722;2022-08-01T01:27:16;4.20;;;3.78;;
48263;SDS011;34086;51.076;13.722;2022-08-01T01:29:55;4.20;;;3.90;;
48263;SDS011;34086;51.076;13.722;2022-08-01T01:30:58;4.95;;;3.50;;
48263;SDS011;34086;51.076;13.722;2022-08-01T01:33:06;4.30;;;3.90;;
48263;SDS011;34086;51.076;13.722;2022-08-01T01:34:11;3.90;;;3.60;;
48263;SDS011;34086;51.076;13.722;2022-08-01T01:35:19;4.00;;;3.70;;
48263;SDS011;34086;51.076;13.722;2022-08-01T01:36:22;4.38;;;3.97;;
48263;SDS011;34086;51.076;13.722;2022-08-01T01:37:25;4.00;;;3.55;;
48263;SDS011;34086;51.076;13.722;2022-08-01T01:38:32;3.83;;;3.53;;
48263;SDS011;34086;51.076;13.722;2022-08-01T01:39:36;4.25;;;3.85;;
48263;SDS011;34086;51.076;13.722;2022-08-01T01:40:38;4.88;;;3.67;;
48263;SDS011;34086;51.076;13.722;2022-08-01T01:41:40;3.90;;;3.60;;
48263;SDS011;34086;51.076;13.722;2022-08-01T01:42:43;4.00;;;3.60;;
48263;SDS011;34086;51.076;13.722;2022-08-01T01:43:45;3.95;;;3.63;;
48263;SDS011;34086;51.076;13.722;2022-08-01T01:44:47;3.80;;;3.50;;
48263;SDS011;34086;51.076;13.722;2022-08-01T01:45:49;8.57;;;3.90;;
48263;SDS011;34086;51.076;13.722;2022-08-01T01:46:51;5.20;;;3.60;;
48263;SDS011;34086;51.076;13.722;2022-08-01T01:47:56;4.00;;;3.70;;
48263;SDS011;34086;51.076;13.722;2022-08-01T01:49:04;3.78;;;3.47;;
48263;SDS011;34086;51.076;13.722;2022-08-01T01:50:31;4.07;;;3.70;;
48263;SDS011;34086;51.076;13.722;2022-08-01T01:51:31;3.92;;;3.60;;
48263;SDS011;34086;51.076;13.722;2022-08-01T01:52:33;4.07;;;3.70;;
48263;SDS011;34086;51.076;13.722;2022-08-01T01:53:35;3.92;;;3.60;;
48263;SDS011;34086;51.076;13.722;2022-08-01T01:54:39;4.57;;;3.95;;
48263;SDS011;34086;51.076;13.722;2022-08-01T01:55:50;4.38;;;3.97;;
48263;SDS011;34086;51.076;13.722;2022-08-01T01:56:55;4.43;;;4.03;;
48263;SDS011;34086;51.076;13.722;2022-08-01T01:58:00;4.05;;;3.72;;
48263;SDS011;34086;51.076;13.722;2022-08-01T01:59:03;4.90;;;4.10;;
48263;SDS011;34086;51.076;13.722;2022-08-01T02:00:05;4.25;;;3.85;;
48263;SDS011;34086;51.076;13.722;2022-08-01T02:01:08;5.88;;;3.90;;
48263;SDS011;34086;51.076;13.722;2022-08-01T02:02:11;4.22;;;3.88;;
48263;SDS011;34086;51.076;13.722;2022-08-01T02:03:14;4.30;;;3.90;;
48263;SDS011;34086;51.076;13.722;2022-08-01T02:04:16;4.07;;;3.78;;
48263;SDS011;34086;51.076;13.722;2022-08-01T02:05:18;4.18;;;3.80;;
48263;SDS011;34086;51.076;13.722;2022-08-01T02:06:19;4.28;;;3.97;;
48263;SDS011;34086;51.076;13.722;2022-08-01T02:11:23;4.40;;;3.97;;
48263;SDS011;34086;51.076;13.722;2022-08-01T02:12:24;4.45;;;4.00;;
48263;SDS011;34086;51.076;13.722;2022-08-01T02:13:31;4.30;;;3.90;;
48263;SDS011;34086;51.076;13.722;2022-08-01T02:14:34;4.47;;;3.95;;
48263;SDS011;34086;51.076;13.722;2022-08-01T02:16:51;4.30;;;3.90;;
48263;SDS011;34086;51.076;13.722;2022-08-01T02:17:52;4.10;;;3.80;;
48263;SDS011;34086;51.076;13.722;2022-08-01T02:18:55;4.07;;;3.78;;
48263;SDS011;34086;51.076;13.722;2022-08-01T02:19:57;4.65;;;3.90;;
48263;SDS011;34086;51.076;13.722;2022-08-01T02:20:58;4.57;;;4.18;;
48263;SDS011;34086;51.076;13.722;2022-08-01T02:22:10;4.45;;;4.05;;
48263;SDS011;34086;51.076;13.722;2022-08-01T02:23:14;4.40;;;4.00;;
48263;SDS011;34086;51.076;13.722;2022-08-01T02:25:33;4.50;;;3.90;;
48263;SDS011;34086;51.076;13.722;2022-08-01T02:26:42;4.63;;;3.90;;
48263;SDS011;34086;51.076;13.722;2022-08-01T02:29:02;4.55;;;3.95;;
48263;SDS011;34086;51.076;13.722;2022-08-01T02:30:07;4.63;;;3.90;;
48263;SDS011;34086;51.076;13.722;2022-08-01T02:31:12;5.38;;;4.22;;
48263;SDS011;34086;51.076;13.722;2022-08-01T02:32:34;5.05;;;4.05;;
48263;SDS011;34086;51.076;13.722;2022-08-01T02:33:58;4.65;;;4.25;;
48263;SDS011;34086;51.076;13.722;2022-08-01T02:35:03;5.40;;;3.83;;
48263;SDS011;34086;51.076;13.722;2022-08-01T02:36:07;4.50;;;4.10;;
48263;SDS011;34086;51.076;13.722;2022-08-01T02:37:08;4.40;;;4.00;;
48263;SDS011;34086;51.076;13.722;2022-08-01T02:38:10;4.68;;;4.28;;
48263;SDS011;34086;51.076;13.722;2022-08-01T02:39:17;5.13;;;4.00;;
48263;SDS011;34086;51.076;13.722;2022-08-01T02:40:21;4.32;;;3.92;;
48263;SDS011;34086;51.076;13.722;2022-08-01T02:41:24;4.78;;;4.20;;
48263;SDS011;34086;51.076;13.722;2022-08-01T02:42:27;4.65;;;4.22;;
48263;SDS011;34086;51.076;13.722;2022-08-01T02:43:30;4.70;;;4.22;;
48263;SDS011;34086;51.076;13.722;2022-08-01T02:44:37;4.15;;;3.75;;
48263;SDS011;34086;51.076;13.722;2022-08-01T02:45:43;4.50;;;4.10;;
48263;SDS011;34086;51.076;13.722;2022-08-01T02:46:49;4.20;;;3.90;;
48263;SDS011;34086;51.076;13.722;2022-08-01T02:47:59;4.47;;;4.07;;
48263;SDS011;34086;51.076;13.722;2022-08-01T02:49:06;5.13;;;4.35;;
48263;SDS011;34086;51.076;13.722;2022-08-01T02:50:13;6.65;;;4.30;;
48263;SDS011;34086;51.076;13.722;2022-08-01T02:51:17;4.65;;;4.10;;
48263;SDS011;34086;51.076;13.722;2022-08-01T02:52:22;4.90;;;4.45;;
48263;SDS011;34086;51.076;13.722;2022-08-01T02:53:36;4.88;;;4.10;;
48263;SDS011;34086;51.076;13.722;2022-08-01T02:54:40;5.25;;;4.20;;
48263;SDS011;34086;51.076;13.722;2022-08-01T02:55:45;4.53;;;3.97;;
48263;SDS011;34086;51.076;13.722;2022-08-01T02:56:54;5.00;;;4.40;;
48263;SDS011;34086;51.076;13.722;2022-08-01T02:57:56;5.45;;;4.38;;
48263;SDS011;34086;51.076;13.722;2022-08-01T02:58:59;5.97;;;4.30;;
48263;SDS011;34086;51.076;13.722;2022-08-01T03:00:00;4.78;;;4.10;;
48263;SDS011;34086;51.076;13.722;2022-08-01T03:01:02;4.65;;;3.88;;
48263;SDS011;34086;51.076;13.722;2022-08-01T03:02:07;4.80;;;4.00;;
48263;SDS011;34086;51.076;13.722;2022-08-01T03:03:09;4.30;;;3.90;;
48263;SDS011;34086;51.076;13.722;2022-08-01T03:04:10;4.28;;;3.90;;
48263;SDS011;34086;51.076;13.722;2022-08-01T03:05:12;4.43;;;3.95;;
48263;SDS011;34086;51.076;13.722;2022-08-01T03:06:15;4.90;;;3.90;;
48263;SDS011;34086;51.076;13.722;2022-08-01T03:07:17;4.40;;;3.58;;
48263;SDS011;34086;51.076;13.722;2022-08-01T03:08:19;4.35;;;3.80;;
48263;SDS011;34086;51.076;13.722;2022-08-01T03:09:21;3.90;;;3.60;;
48263;SDS011;34086;51.076;13.722;2022-08-01T03:10:23;4.78;;;3.70;;
48263;SDS011;34086;51.076;13.722;2022-08-01T03:11:27;5.07;;;3.70;;
48263;SDS011;34086;51.076;13.722;2022-08-01T03:12:29;4.13;;;3.75;;
48263;SDS011;34086;51.076;13.722;2022-08-01T03:13:32;3.72;;;3.42;;
48263;SDS011;34086;51.076;13.722;2022-08-01T03:14:35;4.65;;;3.95;;
48263;SDS011;34086;51.076;13.722;2022-08-01T03:15:38;4.22;;;3.83;;
48263;SDS011;34086;51.076;13.722;2022-08-01T03:16:41;4.53;;;4.10;;
48263;SDS011;34086;51.076;13.722;2022-08-01T03:17:45;4.28;;;3.88;;
48263;SDS011;34086;51.076;13.722;2022-08-01T03:18:47;5.50;;;4.20;;
48263;SDS011;34086;51.076;13.722;2022-08-01T03:19:49;4.47;;;4.07;;
48263;SDS011;34086;51.076;13.722;2022-08-01T03:20:52;5.72;;;4.15;;
48263;SDS011;34086;51.076;13.722;2022-08-01T03:21:54;4.35;;;3.95;;
48263;SDS011;34086;51.076;13.722;2022-08-01T03:22:59;5.10;;;4.38;;
48263;SDS011;34086;51.076;13.722;2022-08-01T03:24:03;5.10;;;4.28;;
48263;SDS011;34086;51.076;13.722;2022-08-01T03:25:06;4.00;;;3.70;;
48263;SDS011;34086;51.076;13.722;2022-08-01T03:26:08;4.30;;;3.90;;
48263;SDS011;34086;51.076;13.722;2022-08-01T03:27:09;6.07;;;4.10;;
48263;SDS011;34086;51.076;13.722;2022-08-01T03:28:12;4.60;;;4.10;;
48263;SDS011;34086;51.076;13.722;2022-08-01T03:29:15;4.65;;;3.90;;
48263;SDS011;34086;51.076;13.722;2022-08-01T03:30:20;5.25;;;4.20;;
48263;SDS011;34086;51.076;13.722;2022-08-01T03:31:23;5.25;;;4.38;;
48263;SDS011;34086;51.076;13.722;2022-08-01T03:32:26;4.97;;;4.13;;
48263;SDS011;34086;51.076;13.722;2022-08-01T03:33:28;4.75;;;3.97;;
48263;SDS011;34086;51.076;13.722;2022-08-01T03:34:29;4.63;;;4.22;;
48263;SDS011;34086;51.076;13.722;2022-08-01T03:35:33;4.45;;;4.05;;
48263;SDS011;34086;51.076;13.722;2022-08-01T03:36:46;5.53;;;4.30;;
48263;SDS011;34086;51.076;13.722;2022-08-01T03:38:06;4.60;;;4.20;;
48263;SDS011;34086;51.076;13.722;2022-08-01T03:39:10;4.50;;;4.10;;
48263;SDS011;34086;51.076;13.722;2022-08-01T03:41:24;5.25;;;4.75;;
48263;SDS011;34086;51.076;13.722;2022-08-01T03:42:46;5.40;;;4.50;;
48263;SDS011;34086;51.076;13.722;2022-08-01T03:43:56;4.60;;;4.20;;
48263;SDS011;34086;51.076;13.722;2022-08-01T03:45:27;6.65;;;4.05;;
48263;SDS011;34086;51.076;13.722;2022-08-01T03:46:42;4.97;;;4.32;;
48263;SDS011;34086;51.076;13.722;2022-08-01T03:47:46;4.53;;;4.10;;
48263;SDS011;34086;51.076;13.722;2022-08-01T03:48:52;4.90;;;4.40;;
48263;SDS011;34086;51.076;13.722;2022-08-01T03:49:55;4.68;;;4.28;;
48263;SDS011;34086;51.076;13.722;2022-08-01T03:50:59;5.00;;;4.60;;
48263;SDS011;34086;51.076;13.722;2022-08-01T03:52:01;4.80;;;4.20;;
48263;SDS011;34086;51.076;13.722;2022-08-01T03:53:04;5.05;;;4.28;;
48263;SDS011;34086;51.076;13.722;2022-08-01T03:54:07;4.97;;;4.43;;
48263;SDS011;34086;51.076;13.722;2022-08-01T03:55:10;4.80;;;4.30;;
48263;SDS011;34086;51.076;13.722;2022-08-01T03:56:13;4.78;;;4.38;;
48263;SDS011;34086;51.076;13.722;2022-08-01T03:57:19;4.45;;;4.00;;
48263;SDS011;34086;51.076;13.722;2022-08-01T03:58:21;4.70;;;4.18;;
48263;SDS011;34086;51.076;13.722;2022-08-01T03:59:22;4.68;;;4.28;;
48263;SDS011;34086;51.076;13.722;2022-08-01T04:00:23;4.88;;;4.20;;
48263;SDS011;34086;51.076;13.722;2022-08-01T04:01:24;4.72;;;4.22;;
48263;SDS011;34086;51.076;13.722;2022-08-01T04:02:26;5.32;;;4.28;;
48263;SDS011;34086;51.076;13.722;2022-08-01T04:03:28;4.95;;;4.07;;
48263;SDS011;34086;51.076;13.722;2022-08-01T04:04:29;5.78;;;4.35;;
48263;SDS011;34086;51.076;13.722;2022-08-01T04:05:30;4.57;;;4.20;;
48263;SDS011;34086;51.076;13.722;2022-08-01T04:06:31;4.50;;;4.10;;
48263;SDS011;34086;51.076;13.722;2022-08-01T04:07:33;4.70;;;4.30;;
48263;SDS011;34086;51.076;13.722;2022-08-01T04:08:39;8.07;;;4.50;;
48263;SDS011;34086;51.076;13.722;2022-08-01T04:09:40;5.38;;;4.50;;
48263;SDS011;34086;51.076;13.722;2022-08-01T04:10:42;6.13;;;4.35;;
48263;SDS011;34086;51.076;13.722;2022-08-01T04:11:43;5.00;;;4.50;;
48263;SDS011;34086;51.076;13.722;2022-08-01T04:12:44;4.82;;;4.32;;
48263;SDS011;34086;51.076;13.722;2022-08-01T04:13:44;4.60;;;4.20;;
48263;SDS011;34086;51.076;13.722;2022-08-01T04:14:45;4.82;;;4.22;;
48263;SDS011;34086;51.076;13.722;2022-08-01T04:15:46;6.60;;;4.43;;
48263;SDS011;34086;51.076;13.722;2022-08-01T04:16:47;4.53;;;4.13;;
48263;SDS011;34086;51.076;13.722;2022-08-01T04:17:48;4.88;;;4.38;;
48263;SDS011;34086;51.076;13.722;2022-08-01T04:18:48;4.50;;;4.10;;
48263;SDS011;34086;51.076;13.722;2022-08-01T04:19:50;4.70;;;4.30;;
48263;SDS011;34086;51.076;13.722;2022-08-01T04:20:50;4.90;;;3.97;;
48263;SDS011;34086;51.076;13.722;2022-08-01T04:21:51;5.03;;;3.88;;
48263;SDS011;34086;51.076;13.722;2022-08-01T04:22:52;4.38;;;3.97;;
48263;SDS011;34086;51.076;13.722;2022-08-01T04:23:53;4.22;;;3.83;;
48263;SDS011;34086;51.076;13.722;2022-08-01T04:24:57;4.30;;;3.90;;
48263;SDS011;34086;51.076;13.722;2022-08-01T04:26:03;4.40;;;4.00;;
48263;SDS011;34086;51.076;13.722;2022-08-01T04:27:14;5.00;;;4.10;;
48263;SDS011;34086;51.076;13.722;2022-08-01T04:28:21;4.00;;;3.70;;
48263;SDS011;34086;51.076;13.722;2022-08-01T04:29:23;5.20;;;4.43;;
48263;SDS011;34086;51.076;13.722;2022-08-01T04:30:26;5.00;;;4.07;;
48263;SDS011;34086;51.076;13.722;2022-08-01T04:31:29;4.30;;;3.90;;
48263;SDS011;34086;51.076;13.722;2022-08-01T04:32:35;5.80;;;4.10;;
48263;SDS011;34086;51.076;13.722;2022-08-01T04:33:40;4.97;;;4.32;;
48263;SDS011;34086;51.076;13.722;2022-08-01T04:34:45;4.57;;;4.15;;
48263;SDS011;34086;51.076;13.722;2022-08-01T04:35:47;5.00;;;4.53;;
48263;SDS011;34086;51.076;13.722;2022-08-01T04:36:50;5.10;;;4.43;;
48263;SDS011;34086;51.076;13.722;2022-08-01T04:37:54;5.68;;;4.65;;
48263;SDS011;34086;51.076;13.722;2022-08-01T04:38:57;5.75;;;5.15;;
48263;SDS011;34086;51.076;13.722;2022-08-01T04:40:00;5.70;;;4.82;;
48263;SDS011;34086;51.076;13.722;2022-08-01T04:41:01;6.05;;;4.90;;
48263;SDS011;34086;51.076;13.722;2022-08-01T04:42:03;7.32;;;5.00;;
48263;SDS011;34086;51.076;13.722;2022-08-01T04:43:05;6.15;;;4.90;;
48263;SDS011;34086;51.076;13.722;2022-08-01T04:44:06;9.18;;;4.72;;
48263;SDS011;34086;51.076;13.722;2022-08-01T04:45:07;6.88;;;5.00;;
48263;SDS011;34086;51.076;13.722;2022-08-01T04:46:08;5.43;;;4.50;;
48263;SDS011;34086;51.076;13.722;2022-08-01T04:47:10;6.25;;;4.20;;
48263;SDS011;34086;51.076;13.722;2022-08-01T04:48:13;6.25;;;4.70;;
48263;SDS011;34086;51.076;13.722;2022-08-01T04:49:16;6.07;;;4.63;;
48263;SDS011;34086;51.076;13.722;2022-08-01T04:50:17;4.93;;;4.38;;
48263;SDS011;34086;51.076;13.722;2022-08-01T04:51:21;5.10;;;4.32;;
48263;SDS011;34086;51.076;13.722;2022-08-01T04:52:22;5.40;;;4.85;;
48263;SDS011;34086;51.076;13.722;2022-08-01T04:53:23;5.55;;;5.05;;
48263;SDS011;34086;51.076;13.722;2022-08-01T04:54:24;5.35;;;4.85;;
48263;SDS011;34086;51.076;13.722;2022-08-01T04:55:25;5.20;;;4.70;;
48263;SDS011;34086;51.076;13.722;2022-08-01T04:56:26;4.70;;;4.30;;
48263;SDS011;34086;51.076;13.722;2022-08-01T04:57:27;4.90;;;4.32;;
48263;SDS011;34086;51.076;13.722;2022-08-01T04:58:27;5.32;;;4.57;;
48263;SDS011;34086;51.076;13.722;2022-08-01T04:59:28;5.53;;;5.03;;
48263;SDS011;34086;51.076;13.722;2022-08-01T05:00:39;5.90;;;5.00;;
48263;SDS011;34086;51.076;13.722;2022-08-01T05:01:40;6.28;;;5.13;;
48263;SDS011;34086;51.076;13.722;2022-08-01T05:02:41;5.43;;;4.70;;
48263;SDS011;34086;51.076;13.722;2022-08-01T05:03:42;5.20;;;4.70;;
48263;SDS011;34086;51.076;13.722;2022-08-01T05:04:45;7.07;;;4.93;;
48263;SDS011;34086;51.076;13.722;2022-08-01T05:05:55;5.90;;;5.35;;
48263;SDS011;34086;51.076;13.722;2022-08-01T05:06:57;6.43;;;4.38;;
48263;SDS011;34086;51.076;13.722;2022-08-01T05:08:03;5.72;;;5.13;;
48263;SDS011;34086;51.076;13.722;2022-08-01T05:09:06;5.30;;;4.80;;
48263;SDS011;34086;51.076;13.722;2022-08-01T05:10:07;7.78;;;4.93;;
48263;SDS011;34086;51.076;13.722;2022-08-01T05:11:08;6.40;;;5.13;;
48263;SDS011;34086;51.076;13.722;2022-08-01T05:12:15;5.70;;;4.60;;
48263;SDS011;34086;51.076;13.722;2022-08-01T05:13:21;6.47;;;4.88;;
48263;SDS011;34086;51.076;13.722;2022-08-01T05:14:22;7.07;;;4.82;;
48263;SDS011;34086;51.076;13.722;2022-08-01T05:15:23;6.32;;;5.72;;
48263;SDS011;34086;51.076;13.722;2022-08-01T05:16:23;6.22;;;5.43;;
48263;SDS011;34086;51.076;13.722;2022-08-01T05:17:24;6.63;;;5.38;;
48263;SDS011;34086;51.076;13.722;2022-08-01T05:18:25;5.75;;;5.07;;
48263;SDS011;34086;51.076;13.722;2022-08-01T05:19:26;8.43;;;5.03;;
48263;SDS011;34086;51.076;13.722;2022-08-01T05:20:27;7.70;;;4.82;;
48263;SDS011;34086;51.076;13.722;2022-08-01T05:21:28;6.93;;;4.80;;
48263;SDS011;34086;51.076;13.722;2022-08-01T05:22:28;5.13;;;4.50;;
48263;SDS011;34086;51.076;13.722;2022-08-01T05:23:29;6.03;;;5.40;;
48263;SDS011;34086;51.076;13.722;2022-08-01T05:24:35;5.20;;;4.80;;
48263;SDS011;34086;51.076;13.722;2022-08-01T05:25:38;5.18;;;4.68;;
48263;SDS011;34086;51.076;13.722;2022-08-01T05:26:39;6.43;;;4.40;;
48263;SDS011;34086;51.076;13.722;2022-08-01T05:27:41;7.93;;;4.75;;
48263;SDS011;34086;51.076;13.722;2022-08-01T05:28:50;8.93;;;4.38;;
48263;SDS011;34086;51.076;13.722;2022-08-01T05:29:51;4.72;;;4.20;;
48263;SDS011;34086;51.076;13.722;2022-08-01T05:30:52;5.38;;;4.20;;
48263;SDS011;34086;51.076;13.722;2022-08-01T05:31:54;7.22;;;4.10;;
48263;SDS011;34086;51.076;13.722;2022-08-01T05:32:55;7.15;;;4.03;;
48263;SDS011;34086;51.076;13.722;2022-08-01T05:33:56;5.78;;;3.97;;
48263;SDS011;34086;51.076;13.722;2022-08-01T05:34:56;6.45;;;4.30;;
48263;SDS011;34086;51.076;13.722;2022-08-01T05:35:57;6.30;;;4.10;;
48263;SDS011;34086;51.076;13.722;2022-08-01T05:36:58;4.28;;;3.97;;
48263;SDS011;34086;51.076;13.722;2022-08-01T05:37:58;4.68;;;3.72;;
48263;SDS011;34086;51.076;13.722;2022-08-01T05:38:59;4.47;;;3.83;;
48263;SDS011;34086;51.076;13.722;2022-08-01T05:40:00;3.80;;;3.50;;
48263;SDS011;34086;51.076;13.722;2022-08-01T05:41:01;5.72;;;3.60;;
48263;SDS011;34086;51.076;13.722;2022-08-01T05:42:02;5.65;;;3.78;;
48263;SDS011;34086;51.076;13.722;2022-08-01T05:43:02;6.05;;;4.03;;
48263;SDS011;34086;51.076;13.722;2022-08-01T05:44:03;5.18;;;4.18;;
48263;SDS011;34086;51.076;13.722;2022-08-01T05:45:04;7.40;;;3.90;;
48263;SDS011;34086;51.076;13.722;2022-08-01T05:46:14;5.53;;;3.88;;
48263;SDS011;34086;51.076;13.722;2022-08-01T05:47:18;4.70;;;3.80;;
48263;SDS011;34086;51.076;13.722;2022-08-01T05:48:22;5.85;;;4.28;;
48263;SDS011;34086;51.076;13.722;2022-08-01T05:49:26;4.40;;;4.00;;
48263;SDS011;34086;51.076;13.722;2022-08-01T05:50:35;7.32;;;4.75;;
48263;SDS011;34086;51.076;13.722;2022-08-01T05:51:36;4.53;;;3.95;;
48263;SDS011;34086;51.076;13.722;2022-08-01T05:52:37;7.63;;;4.32;;
48263;SDS011;34086;51.076;13.722;2022-08-01T05:53:38;6.78;;;4.03;;
48263;SDS011;34086;51.076;13.722;2022-08-01T05:54:39;8.25;;;4.15;;
48263;SDS011;34086;51.076;13.722;2022-08-01T05:55:39;5.03;;;4.10;;
48263;SDS011;34086;51.076;13.722;2022-08-01T05:56:40;5.72;;;4.20;;
48263;SDS011;34086;51.076;13.722;2022-08-01T05:57:48;6.30;;;4.07;;
48263;SDS011;34086;51.076;13.722;2022-08-01T05:58:49;6.22;;;4.00;;
48263;SDS011;34086;51.076;13.722;2022-08-01T05:59:53;5.90;;;4.03;;
48263;SDS011;34086;51.076;13.722;2022-08-01T06:00:54;5.47;;;3.88;;
48263;SDS011;34086;51.076;13.722;2022-08-01T06:01:55;6.38;;;3.90;;
48263;SDS011;34086;51.076;13.722;2022-08-01T06:02:55;4.88;;;4.15;;
48263;SDS011;34086;51.076;13.722;2022-08-01T06:03:56;4.68;;;4.20;;
48263;SDS011;34086;51.076;13.722;2022-08-01T06:04:57;5.88;;;4.35;;
48263;SDS011;34086;51.076;13.722;2022-08-01T06:05:57;7.05;;;4.00;;
48263;SDS011;34086;51.076;13.722;2022-08-01T06:06:58;6.95;;;4.18;;
48263;SDS011;34086;51.076;13.722;2022-08-01T06:07:59;4.85;;;4.15;;
48263;SDS011;34086;51.076;13.722;2022-08-01T06:09:00;5.05;;;3.90;;
48263;SDS011;34086;51.076;13.722;2022-08-01T06:10:00;5.53;;;4.07;;
48263;SDS011;34086;51.076;13.722;2022-08-01T06:11:07;4.82;;;4.10;;
48263;SDS011;34086;51.076;13.722;2022-08-01T06:12:08;5.75;;;4.40;;
48263;SDS011;34086;51.076;13.722;2022-08-01T06:13:09;4.30;;;3.90;;
48263;SDS011;34086;51.076;13.722;2022-08-01T06:14:09;5.72;;;4.03;;
48263;SDS011;34086;51.076;13.722;2022-08-01T06:15:10;5.55;;;4.10;;
48263;SDS011;34086;51.076;13.722;2022-08-01T06:16:11;5.00;;;3.75;;
48263;SDS011;34086;51.076;13.722;2022-08-01T06:17:12;6.40;;;4.15;;
48263;SDS011;34086;51.076;13.722;2022-08-01T06:18:15;4.18;;;3.70;;
48263;SDS011;34086;51.076;13.722;2022-08-01T06:19:16;7.10;;;4.00;;
48263;SDS011;34086;51.076;13.722;2022-08-01T06:20:17;6.32;;;4.28;;
48263;SDS011;34086;51.076;13.722;2022-08-01T06:21:18;4.60;;;4.05;;
48263;SDS011;34086;51.076;13.722;2022-08-01T06:22:24;5.00;;;3.97;;
48263;SDS011;34086;51.076;13.722;2022-08-01T06:23:25;4.85;;;3.80;;
48263;SDS011;34086;51.076;13.722;2022-08-01T06:24:26;4.47;;;4.07;;
48263;SDS011;34086;51.076;13.722;2022-08-01T06:25:27;4.53;;;4.13;;
48263;SDS011;34086;51.076;13.722;2022-08-01T06:26:28;4.30;;;3.85;;
48263;SDS011;34086;51.076;13.722;2022-08-01T06:27:29;4.95;;;4.25;;
48263;SDS011;34086;51.076;13.722;2022-08-01T06:28:29;8.25;;;4.53;;
48263;SDS011;34086;51.076;13.722;2022-08-01T06:29:30;4.78;;;4.00;;
48263;SDS011;34086;51.076;13.722;2022-08-01T06:30:32;7.50;;;4.07;;
48263;SDS011;34086;51.076;13.722;2022-08-01T06:31:33;5.43;;;3.80;;
48263;SDS011;34086;51.076;13.722;2022-08-01T06:32:33;6.07;;;4.07;;